sensor_id;sensor_type;location;lat;lon;timestamp;P1;durP1;ratioP1;P2;durP2;ratioP2
15408;SDS011;7803;48.130;13.788;2023-08-07T00:00:58;2.58;;;2.13;;
15408;SDS011;7803;48.130;13.788;2023-08-07T00:04:02;2.72;;;2.00;;
15408;SDS011;7803;48.130;13.788;2023-08-07T00:07:04;3.05;;;2.05;;
15408;SDS011;7803;48.130;13.788;2023-08-07T00:10:07;2.88;;;2.20;;
15408;SDS011;7803;48.130;13.788;2023-08-07T00:13:09;3.17;;;2.30;;
15408;SDS011;7803;48.130;13.788;2023-08-07T00:16:11;7.75;;;3.22;;
15408;SDS011;7803;48.130;13.788;2023-08-07T00:19:14;4.10;;;2.40;;
15408;SDS011;7803;48.130;13.788;2023-08-07T00:22:16;1.90;;;1.70;;
15408;SDS011;7803;48.130;13.788;2023-08-07T00:25:18;2.72;;;2.00;;
15408;SDS011;7803;48.130;13.788;2023-08-07T00:28:20;2.10;;;1.80;;
15408;SDS011;7803;48.130;13.788;2023-08-07T00:31:22;2.30;;;1.95;;
15408;SDS011;7803;48.130;13.788;2023-08-07T00:34:26;2.45;;;1.90;;
15408;SDS011;7803;48.130;13.788;2023-08-07T00:37:28;3.00;;;2.08;;
15408;SDS011;7803;48.130;13.788;2023-08-07T00:40:35;8.50;;;3.45;;
15408;SDS011;7803;48.130;13.788;2023-08-07T00:43:38;4.70;;;2.50;;
15408;SDS011;7803;48.130;13.788;2023-08-07T00:46:41;3.50;;;2.00;;
15408;SDS011;7803;48.130;13.788;2023-08-07T00:49:45;3.65;;;2.08;;
15408;SDS011;7803;48.130;13.788;2023-08-07T00:52:47;2.17;;;1.80;;
15408;SDS011;7803;48.130;13.788;2023-08-07T00:55:49;2.22;;;1.77;;
15408;SDS011;7803;48.130;13.788;2023-08-07T00:58:52;2.28;;;1.70;;
15408;SDS011;7803;48.130;13.788;2023-08-07T01:01:54;2.70;;;1.90;;
15408;SDS011;7803;48.130;13.788;2023-08-07T01:04:58;3.38;;;2.13;;
15408;SDS011;7803;48.130;13.788;2023-08-07T01:08:00;3.35;;;2.17;;
15408;SDS011;7803;48.130;13.788;2023-08-07T01:11:07;3.40;;;1.95;;
15408;SDS011;7803;48.130;13.788;2023-08-07T01:14:19;5.10;;;2.38;;
15408;SDS011;7803;48.130;13.788;2023-08-07T01:17:28;5.72;;;2.65;;
15408;SDS011;7803;48.130;13.788;2023-08-07T01:20:35;3.45;;;2.05;;
15408;SDS011;7803;48.130;13.788;2023-08-07T01:23:38;4.30;;;2.17;;
15408;SDS011;7803;48.130;13.788;2023-08-07T01:26:40;3.45;;;2.08;;
15408;SDS011;7803;48.130;13.788;2023-08-07T01:29:48;3.92;;;2.28;;
15408;SDS011;7803;48.130;13.788;2023-08-07T01:32:58;3.20;;;1.98;;
15408;SDS011;7803;48.130;13.788;2023-08-07T01:36:06;3.40;;;2.03;;
15408;SDS011;7803;48.130;13.788;2023-08-07T01:39:11;3.08;;;1.95;;
15408;SDS011;7803;48.130;13.788;2023-08-07T01:42:13;3.75;;;2.13;;
15408;SDS011;7803;48.130;13.788;2023-08-07T01:45:21;2.30;;;1.73;;
15408;SDS011;7803;48.130;13.788;2023-08-07T01:48:24;2.50;;;1.63;;
15408;SDS011;7803;48.130;13.788;2023-08-07T01:51:26;3.33;;;1.75;;
15408;SDS011;7803;48.130;13.788;2023-08-07T01:54:29;4.57;;;2.47;;
15408;SDS011;7803;48.130;13.788;2023-08-07T01:57:31;3.67;;;2.00;;
15408;SDS011;7803;48.130;13.788;2023-08-07T02:00:33;2.33;;;1.80;;
15408;SDS011;7803;48.130;13.788;2023-08-07T02:03:35;2.67;;;1.80;;
15408;SDS011;7803;48.130;13.788;2023-08-07T02:06:37;12.52;;;4.30;;
15408;SDS011;7803;48.130;13.788;2023-08-07T02:09:41;4.85;;;2.22;;
15408;SDS011;7803;48.130;13.788;2023-08-07T02:12:43;2.67;;;1.88;;
15408;SDS011;7803;48.130;13.788;2023-08-07T02:15:45;2.28;;;1.52;;
15408;SDS011;7803;48.130;13.788;2023-08-07T02:18:47;5.05;;;2.03;;
15408;SDS011;7803;48.130;13.788;2023-08-07T02:21:49;2.25;;;1.90;;
15408;SDS011;7803;48.130;13.788;2023-08-07T02:24:52;2.67;;;1.90;;
15408;SDS011;7803;48.130;13.788;2023-08-07T02:27:54;2.88;;;1.83;;
15408;SDS011;7803;48.130;13.788;2023-08-07T02:30:58;2.05;;;1.70;;
15408;SDS011;7803;48.130;13.788;2023-08-07T02:34:00;3.38;;;2.25;;
15408;SDS011;7803;48.130;13.788;2023-08-07T02:37:02;3.20;;;2.08;;
15408;SDS011;7803;48.130;13.788;2023-08-07T02:40:06;5.68;;;2.42;;
15408;SDS011;7803;48.130;13.788;2023-08-07T02:43:09;4.15;;;2.15;;
15408;SDS011;7803;48.130;13.788;2023-08-07T02:46:11;4.88;;;2.17;;
15408;SDS011;7803;48.130;13.788;2023-08-07T02:49:13;4.57;;;2.17;;
15408;SDS011;7803;48.130;13.788;2023-08-07T02:52:15;2.80;;;1.85;;
15408;SDS011;7803;48.130;13.788;2023-08-07T02:55:19;6.43;;;2.88;;
15408;SDS011;7803;48.130;13.788;2023-08-07T02:58:21;3.92;;;2.20;;
15408;SDS011;7803;48.130;13.788;2023-08-07T03:01:23;2.35;;;1.80;;
15408;SDS011;7803;48.130;13.788;2023-08-07T03:04:25;2.97;;;2.00;;
15408;SDS011;7803;48.130;13.788;2023-08-07T03:07:27;3.47;;;2.10;;
15408;SDS011;7803;48.130;13.788;2023-08-07T03:10:30;2.92;;;2.00;;
15408;SDS011;7803;48.130;13.788;2023-08-07T03:13:32;2.80;;;1.88;;
15408;SDS011;7803;48.130;13.788;2023-08-07T03:16:34;2.63;;;1.92;;
15408;SDS011;7803;48.130;13.788;2023-08-07T03:19:36;2.30;;;1.77;;
15408;SDS011;7803;48.130;13.788;2023-08-07T03:22:38;2.58;;;1.90;;
15408;SDS011;7803;48.130;13.788;2023-08-07T03:25:41;5.63;;;2.78;;
15408;SDS011;7803;48.130;13.788;2023-08-07T03:28:43;3.45;;;2.08;;
15408;SDS011;7803;48.130;13.788;2023-08-07T03:31:47;2.38;;;1.75;;
15408;SDS011;7803;48.130;13.788;2023-08-07T03:34:49;7.93;;;3.10;;
15408;SDS011;7803;48.130;13.788;2023-08-07T03:37:51;4.85;;;2.42;;
15408;SDS011;7803;48.130;13.788;2023-08-07T03:40:54;3.00;;;2.08;;
15408;SDS011;7803;48.130;13.788;2023-08-07T03:43:56;3.00;;;1.70;;
15408;SDS011;7803;48.130;13.788;2023-08-07T03:46:58;2.13;;;1.60;;
15408;SDS011;7803;48.130;13.788;2023-08-07T03:50:00;2.08;;;1.73;;
15408;SDS011;7803;48.130;13.788;2023-08-07T03:53:02;2.40;;;1.80;;
15408;SDS011;7803;48.130;13.788;2023-08-07T03:56:08;2.75;;;1.77;;
15408;SDS011;7803;48.130;13.788;2023-08-07T03:59:10;3.28;;;1.98;;
15408;SDS011;7803;48.130;13.788;2023-08-07T04:02:12;4.38;;;2.03;;
15408;SDS011;7803;48.130;13.788;2023-08-07T04:05:14;3.13;;;2.00;;
15408;SDS011;7803;48.130;13.788;2023-08-07T04:08:16;2.58;;;1.90;;
15408;SDS011;7803;48.130;13.788;2023-08-07T04:11:19;3.38;;;2.58;;
15408;SDS011;7803;48.130;13.788;2023-08-07T04:14:21;5.25;;;2.90;;
15408;SDS011;7803;48.130;13.788;2023-08-07T04:17:23;4.82;;;2.80;;
15408;SDS011;7803;48.130;13.788;2023-08-07T04:20:26;4.80;;;2.90;;
15408;SDS011;7803;48.130;13.788;2023-08-07T04:23:28;5.07;;;3.03;;
15408;SDS011;7803;48.130;13.788;2023-08-07T04:26:32;3.45;;;2.80;;
15408;SDS011;7803;48.130;13.788;2023-08-07T04:29:35;3.70;;;2.67;;
15408;SDS011;7803;48.130;13.788;2023-08-07T04:32:37;3.13;;;2.65;;
15408;SDS011;7803;48.130;13.788;2023-08-07T04:35:40;5.68;;;2.60;;
15408;SDS011;7803;48.130;13.788;2023-08-07T04:38:42;4.25;;;2.15;;
15408;SDS011;7803;48.130;13.788;2023-08-07T04:41:46;8.57;;;2.85;;
15408;SDS011;7803;48.130;13.788;2023-08-07T04:44:50;2.97;;;1.85;;
15408;SDS011;7803;48.130;13.788;2023-08-07T04:47:52;3.95;;;1.80;;
15408;SDS011;7803;48.130;13.788;2023-08-07T04:50:53;3.40;;;1.50;;
15408;SDS011;7803;48.130;13.788;2023-08-07T04:53:55;3.60;;;2.00;;
15408;SDS011;7803;48.130;13.788;2023-08-07T04:56:59;4.82;;;2.08;;
15408;SDS011;7803;48.130;13.788;2023-08-07T05:00:01;5.57;;;2.40;;
15408;SDS011;7803;48.130;13.788;2023-08-07T05:03:03;4.78;;;2.10;;
15408;SDS011;7803;48.130;13.788;2023-08-07T05:06:05;3.83;;;1.83;;
15408;SDS011;7803;48.130;13.788;2023-08-07T05:09:07;3.05;;;1.80;;
15408;SDS011;7803;48.130;13.788;2023-08-07T05:12:10;1.90;;;1.35;;
15408;SDS011;7803;48.130;13.788;2023-08-07T05:15:12;7.10;;;2.40;;
15408;SDS011;7803;48.130;13.788;2023-08-07T05:18:14;2.67;;;1.40;;
15408;SDS011;7803;48.130;13.788;2023-08-07T05:21:16;2.90;;;1.67;;
15408;SDS011;7803;48.130;13.788;2023-08-07T05:24:18;3.05;;;1.50;;
15408;SDS011;7803;48.130;13.788;2023-08-07T05:27:22;3.35;;;1.52;;
15408;SDS011;7803;48.130;13.788;2023-08-07T05:30:24;2.42;;;1.45;;
15408;SDS011;7803;48.130;13.788;2023-08-07T05:33:26;2.38;;;1.50;;
15408;SDS011;7803;48.130;13.788;2023-08-07T05:36:28;6.72;;;2.53;;
15408;SDS011;7803;48.130;13.788;2023-08-07T05:39:31;4.43;;;1.80;;
15408;SDS011;7803;48.130;13.788;2023-08-07T05:42:34;1.83;;;1.33;;
15408;SDS011;7803;48.130;13.788;2023-08-07T05:45:36;6.05;;;2.53;;
15408;SDS011;7803;48.130;13.788;2023-08-07T05:48:38;2.28;;;1.33;;
15408;SDS011;7803;48.130;13.788;2023-08-07T05:51:40;2.65;;;1.50;;
15408;SDS011;7803;48.130;13.788;2023-08-07T05:54:42;2.20;;;1.30;;
15408;SDS011;7803;48.130;13.788;2023-08-07T05:57:46;2.17;;;1.42;;
15408;SDS011;7803;48.130;13.788;2023-08-07T06:00:48;2.20;;;1.42;;
15408;SDS011;7803;48.130;13.788;2023-08-07T06:03:50;2.80;;;1.60;;
15408;SDS011;7803;48.130;13.788;2023-08-07T06:06:52;2.25;;;1.35;;
15408;SDS011;7803;48.130;13.788;2023-08-07T06:09:54;1.80;;;1.30;;
15408;SDS011;7803;48.130;13.788;2023-08-07T06:12:57;2.83;;;1.50;;
15408;SDS011;7803;48.130;13.788;2023-08-07T06:15:59;2.78;;;1.60;;
15408;SDS011;7803;48.130;13.788;2023-08-07T06:19:01;1.88;;;1.55;;
15408;SDS011;7803;48.130;13.788;2023-08-07T06:22:03;4.65;;;2.22;;
15408;SDS011;7803;48.130;13.788;2023-08-07T06:25:06;4.13;;;1.70;;
15408;SDS011;7803;48.130;13.788;2023-08-07T06:28:10;3.50;;;1.77;;
15408;SDS011;7803;48.130;13.788;2023-08-07T06:31:12;3.95;;;2.22;;
15408;SDS011;7803;48.130;13.788;2023-08-07T06:34:16;3.45;;;2.10;;
15408;SDS011;7803;48.130;13.788;2023-08-07T06:37:18;2.45;;;1.63;;
15408;SDS011;7803;48.130;13.788;2023-08-07T06:40:20;2.22;;;1.83;;
15408;SDS011;7803;48.130;13.788;2023-08-07T06:43:24;6.55;;;3.05;;
15408;SDS011;7803;48.130;13.788;2023-08-07T06:46:26;3.45;;;2.08;;
15408;SDS011;7803;48.130;13.788;2023-08-07T06:49:28;2.83;;;2.00;;
15408;SDS011;7803;48.130;13.788;2023-08-07T06:52:31;2.88;;;2.20;;
15408;SDS011;7803;48.130;13.788;2023-08-07T06:55:33;3.70;;;2.42;;
15408;SDS011;7803;48.130;13.788;2023-08-07T06:58:37;3.28;;;2.30;;
15408;SDS011;7803;48.130;13.788;2023-08-07T07:01:39;4.47;;;2.55;;
15408;SDS011;7803;48.130;13.788;2023-08-07T07:04:41;4.40;;;2.47;;
15408;SDS011;7803;48.130;13.788;2023-08-07T07:07:43;3.47;;;2.67;;
15408;SDS011;7803;48.130;13.788;2023-08-07T07:10:45;3.78;;;2.80;;
15408;SDS011;7803;48.130;13.788;2023-08-07T07:13:48;3.83;;;2.80;;
15408;SDS011;7803;48.130;13.788;2023-08-07T07:16:51;3.72;;;2.55;;
15408;SDS011;7803;48.130;13.788;2023-08-07T07:19:52;3.33;;;2.70;;
15408;SDS011;7803;48.130;13.788;2023-08-07T07:22:56;3.72;;;2.60;;
15408;SDS011;7803;48.130;13.788;2023-08-07T07:25:58;3.67;;;2.85;;
15408;SDS011;7803;48.130;13.788;2023-08-07T07:29:02;3.63;;;2.88;;
15408;SDS011;7803;48.130;13.788;2023-08-07T07:32:04;4.45;;;3.00;;
15408;SDS011;7803;48.130;13.788;2023-08-07T07:35:07;4.05;;;2.83;;
15408;SDS011;7803;48.130;13.788;2023-08-07T07:38:09;3.85;;;3.08;;
15408;SDS011;7803;48.130;13.788;2023-08-07T07:41:12;4.60;;;2.90;;
15408;SDS011;7803;48.130;13.788;2023-08-07T07:44:15;4.50;;;3.00;;
15408;SDS011;7803;48.130;13.788;2023-08-07T07:47:17;6.03;;;3.53;;
15408;SDS011;7803;48.130;13.788;2023-08-07T07:50:19;4.68;;;3.20;;
15408;SDS011;7803;48.130;13.788;2023-08-07T07:53:21;4.88;;;3.20;;
15408;SDS011;7803;48.130;13.788;2023-08-07T07:56:23;3.53;;;3.08;;
15408;SDS011;7803;48.130;13.788;2023-08-07T07:59:27;3.25;;;2.95;;
15408;SDS011;7803;48.130;13.788;2023-08-07T08:02:29;3.67;;;3.10;;
15408;SDS011;7803;48.130;13.788;2023-08-07T08:05:31;4.20;;;2.97;;
15408;SDS011;7803;48.130;13.788;2023-08-07T08:08:34;3.58;;;3.00;;
15408;SDS011;7803;48.130;13.788;2023-08-07T08:11:36;3.60;;;3.17;;
15408;SDS011;7803;48.130;13.788;2023-08-07T08:14:40;4.38;;;3.30;;
15408;SDS011;7803;48.130;13.788;2023-08-07T08:17:42;4.18;;;3.60;;
15408;SDS011;7803;48.130;13.788;2023-08-07T08:20:43;10.68;;;4.72;;
15408;SDS011;7803;48.130;13.788;2023-08-07T08:23:45;5.22;;;3.90;;
15408;SDS011;7803;48.130;13.788;2023-08-07T08:26:47;3.80;;;3.38;;
15408;SDS011;7803;48.130;13.788;2023-08-07T08:29:51;3.75;;;3.30;;
15408;SDS011;7803;48.130;13.788;2023-08-07T08:32:53;4.53;;;3.50;;
15408;SDS011;7803;48.130;13.788;2023-08-07T08:35:55;3.80;;;3.40;;
15408;SDS011;7803;48.130;13.788;2023-08-07T08:38:57;3.92;;;3.40;;
15408;SDS011;7803;48.130;13.788;2023-08-07T08:41:59;5.28;;;3.75;;
15408;SDS011;7803;48.130;13.788;2023-08-07T08:45:02;4.57;;;3.58;;
15408;SDS011;7803;48.130;13.788;2023-08-07T08:48:05;4.57;;;3.67;;
15408;SDS011;7803;48.130;13.788;2023-08-07T08:51:14;4.38;;;3.72;;
15408;SDS011;7803;48.130;13.788;2023-08-07T08:54:18;4.50;;;3.55;;
15408;SDS011;7803;48.130;13.788;2023-08-07T08:57:20;3.88;;;3.33;;
15408;SDS011;7803;48.130;13.788;2023-08-07T09:00:24;5.60;;;4.03;;
15408;SDS011;7803;48.130;13.788;2023-08-07T09:03:27;5.53;;;3.95;;
15408;SDS011;7803;48.130;13.788;2023-08-07T09:06:29;4.57;;;3.67;;
15408;SDS011;7803;48.130;13.788;2023-08-07T09:09:33;4.43;;;3.70;;
15408;SDS011;7803;48.130;13.788;2023-08-07T09:12:35;6.53;;;4.03;;
15408;SDS011;7803;48.130;13.788;2023-08-07T09:15:42;4.82;;;3.83;;
15408;SDS011;7803;48.130;13.788;2023-08-07T09:18:50;5.28;;;3.78;;
15408;SDS011;7803;48.130;13.788;2023-08-07T09:21:54;5.43;;;3.78;;
15408;SDS011;7803;48.130;13.788;2023-08-07T09:24:57;4.20;;;3.65;;
15408;SDS011;7803;48.130;13.788;2023-08-07T09:28:01;4.70;;;3.85;;
15408;SDS011;7803;48.130;13.788;2023-08-07T09:31:06;5.05;;;3.63;;
15408;SDS011;7803;48.130;13.788;2023-08-07T09:34:09;3.90;;;3.50;;
15408;SDS011;7803;48.130;13.788;2023-08-07T09:37:13;4.10;;;3.40;;
15408;SDS011;7803;48.130;13.788;2023-08-07T09:40:15;3.35;;;3.05;;
15408;SDS011;7803;48.130;13.788;2023-08-07T09:43:21;4.03;;;3.53;;
15408;SDS011;7803;48.130;13.788;2023-08-07T09:46:25;7.03;;;4.40;;
15408;SDS011;7803;48.130;13.788;2023-08-07T09:49:32;6.10;;;4.25;;
15408;SDS011;7803;48.130;13.788;2023-08-07T09:52:34;4.50;;;3.97;;
15408;SDS011;7803;48.130;13.788;2023-08-07T09:55:37;4.30;;;3.90;;
15408;SDS011;7803;48.130;13.788;2023-08-07T09:58:42;6.07;;;4.70;;
15408;SDS011;7803;48.130;13.788;2023-08-07T10:01:49;6.25;;;4.50;;
15408;SDS011;7803;48.130;13.788;2023-08-07T10:04:51;6.00;;;4.60;;
15408;SDS011;7803;48.130;13.788;2023-08-07T10:07:55;17.55;;;11.50;;
15408;SDS011;7803;48.130;13.788;2023-08-07T10:10:58;36.28;;;21.60;;
15408;SDS011;7803;48.130;13.788;2023-08-07T10:14:01;127.68;;;94.10;;
15408;SDS011;7803;48.130;13.788;2023-08-07T10:17:05;536.97;;;239.15;;
15408;SDS011;7803;48.130;13.788;2023-08-07T10:20:08;520.80;;;323.45;;
15408;SDS011;7803;48.130;13.788;2023-08-07T10:23:11;766.83;;;642.60;;
15408;SDS011;7803;48.130;13.788;2023-08-07T10:26:17;1994.10;;;783.92;;
15408;SDS011;7803;48.130;13.788;2023-08-07T10:29:20;923.47;;;511.92;;
15408;SDS011;7803;48.130;13.788;2023-08-07T10:32:25;603.63;;;345.77;;
15408;SDS011;7803;48.130;13.788;2023-08-07T10:35:30;511.20;;;289.02;;
15408;SDS011;7803;48.130;13.788;2023-08-07T10:38:33;443.70;;;250.43;;
15408;SDS011;7803;48.130;13.788;2023-08-07T10:41:40;412.33;;;218.93;;
15408;SDS011;7803;48.130;13.788;2023-08-07T10:44:47;396.35;;;204.75;;
15408;SDS011;7803;48.130;13.788;2023-08-07T10:47:58;345.83;;;177.63;;
15408;SDS011;7803;48.130;13.788;2023-08-07T10:51:04;97.25;;;55.08;;
15408;SDS011;7803;48.130;13.788;2023-08-07T10:54:06;43.35;;;25.65;;
15408;SDS011;7803;48.130;13.788;2023-08-07T10:57:09;43.38;;;25.35;;
15408;SDS011;7803;48.130;13.788;2023-08-07T11:00:13;50.03;;;27.30;;
15408;SDS011;7803;48.130;13.788;2023-08-07T11:03:21;47.80;;;26.85;;
15408;SDS011;7803;48.130;13.788;2023-08-07T11:06:28;48.08;;;26.67;;
15408;SDS011;7803;48.130;13.788;2023-08-07T11:09:33;59.25;;;29.88;;
15408;SDS011;7803;48.130;13.788;2023-08-07T11:12:36;56.88;;;28.23;;
15408;SDS011;7803;48.130;13.788;2023-08-07T11:15:39;53.20;;;26.33;;
15408;SDS011;7803;48.130;13.788;2023-08-07T11:18:42;50.42;;;25.75;;
15408;SDS011;7803;48.130;13.788;2023-08-07T11:21:44;53.58;;;26.55;;
15408;SDS011;7803;48.130;13.788;2023-08-07T11:24:46;48.58;;;25.15;;
15408;SDS011;7803;48.130;13.788;2023-08-07T11:27:49;44.78;;;23.60;;
15408;SDS011;7803;48.130;13.788;2023-08-07T11:30:51;41.20;;;21.95;;
15408;SDS011;7803;48.130;13.788;2023-08-07T11:33:57;39.65;;;21.08;;
15408;SDS011;7803;48.130;13.788;2023-08-07T11:36:59;37.05;;;20.20;;
15408;SDS011;7803;48.130;13.788;2023-08-07T11:40:01;46.08;;;21.60;;
15408;SDS011;7803;48.130;13.788;2023-08-07T11:43:04;41.42;;;20.75;;
15408;SDS011;7803;48.130;13.788;2023-08-07T11:46:06;49.95;;;21.33;;
15408;SDS011;7803;48.130;13.788;2023-08-07T11:49:10;48.50;;;22.77;;
15408;SDS011;7803;48.130;13.788;2023-08-07T11:52:13;46.67;;;22.55;;
15408;SDS011;7803;48.130;13.788;2023-08-07T11:55:17;43.22;;;20.88;;
15408;SDS011;7803;48.130;13.788;2023-08-07T11:58:19;40.92;;;20.15;;
15408;SDS011;7803;48.130;13.788;2023-08-07T12:01:21;36.70;;;19.63;;
15408;SDS011;7803;48.130;13.788;2023-08-07T12:04:26;37.15;;;18.67;;
15408;SDS011;7803;48.130;13.788;2023-08-07T12:07:36;36.60;;;18.92;;
15408;SDS011;7803;48.130;13.788;2023-08-07T12:10:38;31.75;;;17.05;;
15408;SDS011;7803;48.130;13.788;2023-08-07T12:13:41;31.77;;;16.27;;
15408;SDS011;7803;48.130;13.788;2023-08-07T12:16:44;31.65;;;16.80;;
15408;SDS011;7803;48.130;13.788;2023-08-07T12:19:48;28.48;;;15.63;;
15408;SDS011;7803;48.130;13.788;2023-08-07T12:22:51;30.02;;;15.77;;
15408;SDS011;7803;48.130;13.788;2023-08-07T12:25:53;27.10;;;15.57;;
15408;SDS011;7803;48.130;13.788;2023-08-07T12:28:56;27.77;;;15.30;;
15408;SDS011;7803;48.130;13.788;2023-08-07T12:31:58;24.35;;;13.25;;
15408;SDS011;7803;48.130;13.788;2023-08-07T12:35:03;22.88;;;13.25;;
15408;SDS011;7803;48.130;13.788;2023-08-07T12:38:08;23.10;;;13.45;;
15408;SDS011;7803;48.130;13.788;2023-08-07T12:41:11;26.83;;;14.15;;
15408;SDS011;7803;48.130;13.788;2023-08-07T12:44:14;21.55;;;12.98;;
15408;SDS011;7803;48.130;13.788;2023-08-07T12:47:16;25.48;;;13.90;;
15408;SDS011;7803;48.130;13.788;2023-08-07T12:50:19;24.35;;;12.60;;
15408;SDS011;7803;48.130;13.788;2023-08-07T12:53:21;24.98;;;13.30;;
15408;SDS011;7803;48.130;13.788;2023-08-07T12:56:23;24.63;;;12.85;;
15408;SDS011;7803;48.130;13.788;2023-08-07T12:59:26;20.95;;;12.75;;
15408;SDS011;7803;48.130;13.788;2023-08-07T13:02:28;19.67;;;11.80;;
15408;SDS011;7803;48.130;13.788;2023-08-07T13:05:31;21.00;;;11.50;;
15408;SDS011;7803;48.130;13.788;2023-08-07T13:08:33;19.77;;;10.93;;
15408;SDS011;7803;48.130;13.788;2023-08-07T13:11:35;18.80;;;10.80;;
15408;SDS011;7803;48.130;13.788;2023-08-07T13:14:37;18.33;;;10.70;;
15408;SDS011;7803;48.130;13.788;2023-08-07T13:17:39;22.20;;;11.18;;
15408;SDS011;7803;48.130;13.788;2023-08-07T13:20:42;17.95;;;11.20;;
15408;SDS011;7803;48.130;13.788;2023-08-07T13:23:44;19.00;;;10.93;;
15408;SDS011;7803;48.130;13.788;2023-08-07T13:26:46;20.52;;;10.93;;
15408;SDS011;7803;48.130;13.788;2023-08-07T13:29:48;17.13;;;10.20;;
15408;SDS011;7803;48.130;13.788;2023-08-07T13:32:51;19.55;;;10.75;;
15408;SDS011;7803;48.130;13.788;2023-08-07T13:35:54;17.17;;;10.00;;
15408;SDS011;7803;48.130;13.788;2023-08-07T13:38:56;19.15;;;9.65;;
15408;SDS011;7803;48.130;13.788;2023-08-07T13:42:00;18.73;;;10.43;;
15408;SDS011;7803;48.130;13.788;2023-08-07T13:45:03;13.07;;;9.30;;
15408;SDS011;7803;48.130;13.788;2023-08-07T13:48:06;13.80;;;9.65;;
15408;SDS011;7803;48.130;13.788;2023-08-07T13:51:13;15.95;;;10.07;;
15408;SDS011;7803;48.130;13.788;2023-08-07T13:54:17;14.57;;;9.55;;
15408;SDS011;7803;48.130;13.788;2023-08-07T13:57:21;14.23;;;9.98;;
15408;SDS011;7803;48.130;13.788;2023-08-07T14:00:25;14.70;;;9.38;;
15408;SDS011;7803;48.130;13.788;2023-08-07T14:03:28;16.08;;;9.60;;
15408;SDS011;7803;48.130;13.788;2023-08-07T14:06:34;8.48;;;6.15;;
15408;SDS011;7803;48.130;13.788;2023-08-07T14:09:41;8.05;;;5.57;;
15408;SDS011;7803;48.130;13.788;2023-08-07T14:12:45;7.93;;;4.60;;
15408;SDS011;7803;48.130;13.788;2023-08-07T14:15:49;7.75;;;5.13;;
15408;SDS011;7803;48.130;13.788;2023-08-07T14:18:52;6.88;;;4.47;;
15408;SDS011;7803;48.130;13.788;2023-08-07T14:21:56;6.55;;;4.40;;
15408;SDS011;7803;48.130;13.788;2023-08-07T14:24:58;7.57;;;4.82;;
15408;SDS011;7803;48.130;13.788;2023-08-07T14:28:00;8.40;;;4.93;;
15408;SDS011;7803;48.130;13.788;2023-08-07T14:31:05;9.85;;;4.72;;
15408;SDS011;7803;48.130;13.788;2023-08-07T14:34:08;7.82;;;5.20;;
15408;SDS011;7803;48.130;13.788;2023-08-07T14:37:12;5.70;;;4.70;;
15408;SDS011;7803;48.130;13.788;2023-08-07T14:40:14;7.38;;;4.88;;
15408;SDS011;7803;48.130;13.788;2023-08-07T14:43:16;7.10;;;5.22;;
15408;SDS011;7803;48.130;13.788;2023-08-07T14:46:18;6.20;;;5.25;;
15408;SDS011;7803;48.130;13.788;2023-08-07T14:49:22;6.15;;;4.88;;
15408;SDS011;7803;48.130;13.788;2023-08-07T14:52:25;5.93;;;5.25;;
15408;SDS011;7803;48.130;13.788;2023-08-07T14:55:27;5.32;;;4.75;;
15408;SDS011;7803;48.130;13.788;2023-08-07T14:58:29;6.88;;;5.30;;
15408;SDS011;7803;48.130;13.788;2023-08-07T15:01:32;7.20;;;5.35;;
15408;SDS011;7803;48.130;13.788;2023-08-07T15:04:34;9.35;;;6.20;;
15408;SDS011;7803;48.130;13.788;2023-08-07T15:07:38;6.32;;;5.50;;
15408;SDS011;7803;48.130;13.788;2023-08-07T15:10:40;6.88;;;5.70;;
15408;SDS011;7803;48.130;13.788;2023-08-07T15:13:42;7.05;;;5.50;;
15408;SDS011;7803;48.130;13.788;2023-08-07T15:16:44;6.70;;;5.53;;
15408;SDS011;7803;48.130;13.788;2023-08-07T15:19:46;6.93;;;5.75;;
15408;SDS011;7803;48.130;13.788;2023-08-07T15:22:49;7.60;;;5.97;;
15408;SDS011;7803;48.130;13.788;2023-08-07T15:25:51;7.95;;;6.07;;
15408;SDS011;7803;48.130;13.788;2023-08-07T15:28:53;7.55;;;6.20;;
15408;SDS011;7803;48.130;13.788;2023-08-07T15:31:56;6.82;;;5.70;;
15408;SDS011;7803;48.130;13.788;2023-08-07T15:34:58;7.68;;;6.30;;
15408;SDS011;7803;48.130;13.788;2023-08-07T15:38:02;10.52;;;6.88;;
15408;SDS011;7803;48.130;13.788;2023-08-07T15:41:05;7.47;;;6.20;;
15408;SDS011;7803;48.130;13.788;2023-08-07T15:44:07;7.70;;;6.53;;
15408;SDS011;7803;48.130;13.788;2023-08-07T15:47:10;9.20;;;6.63;;
15408;SDS011;7803;48.130;13.788;2023-08-07T15:50:13;8.90;;;6.65;;
15408;SDS011;7803;48.130;13.788;2023-08-07T15:53:18;8.40;;;6.43;;
15408;SDS011;7803;48.130;13.788;2023-08-07T15:56:21;8.20;;;6.53;;
15408;SDS011;7803;48.130;13.788;2023-08-07T15:59:23;7.03;;;6.25;;
15408;SDS011;7803;48.130;13.788;2023-08-07T16:02:28;7.05;;;6.32;;
15408;SDS011;7803;48.130;13.788;2023-08-07T16:05:30;7.47;;;6.35;;
15408;SDS011;7803;48.130;13.788;2023-08-07T16:08:35;6.95;;;6.25;;
15408;SDS011;7803;48.130;13.788;2023-08-07T16:11:37;7.78;;;6.43;;
15408;SDS011;7803;48.130;13.788;2023-08-07T16:14:39;7.15;;;6.40;;
15408;SDS011;7803;48.130;13.788;2023-08-07T16:17:42;8.75;;;7.03;;
15408;SDS011;7803;48.130;13.788;2023-08-07T16:20:44;7.35;;;6.65;;
15408;SDS011;7803;48.130;13.788;2023-08-07T16:23:48;8.07;;;6.75;;
15408;SDS011;7803;48.130;13.788;2023-08-07T16:26:50;10.43;;;7.15;;
15408;SDS011;7803;48.130;13.788;2023-08-07T16:29:53;8.60;;;6.90;;
15408;SDS011;7803;48.130;13.788;2023-08-07T16:32:56;9.80;;;7.28;;
15408;SDS011;7803;48.130;13.788;2023-08-07T16:35:59;12.00;;;7.63;;
15408;SDS011;7803;48.130;13.788;2023-08-07T16:39:07;9.65;;;7.50;;
15408;SDS011;7803;48.130;13.788;2023-08-07T16:42:11;11.73;;;7.70;;
15408;SDS011;7803;48.130;13.788;2023-08-07T16:45:14;11.27;;;7.22;;
15408;SDS011;7803;48.130;13.788;2023-08-07T16:48:20;8.13;;;7.13;;
15408;SDS011;7803;48.130;13.788;2023-08-07T16:51:23;9.77;;;7.35;;
15408;SDS011;7803;48.130;13.788;2023-08-07T16:54:28;12.70;;;7.53;;
15408;SDS011;7803;48.130;13.788;2023-08-07T16:57:32;10.55;;;7.72;;
15408;SDS011;7803;48.130;13.788;2023-08-07T17:00:36;8.63;;;7.72;;
15408;SDS011;7803;48.130;13.788;2023-08-07T17:03:39;10.23;;;7.28;;
15408;SDS011;7803;48.130;13.788;2023-08-07T17:06:43;8.85;;;7.72;;
15408;SDS011;7803;48.130;13.788;2023-08-07T17:09:48;10.50;;;7.53;;
15408;SDS011;7803;48.130;13.788;2023-08-07T17:12:51;9.50;;;7.50;;
15408;SDS011;7803;48.130;13.788;2023-08-07T17:15:56;9.73;;;7.63;;
15408;SDS011;7803;48.130;13.788;2023-08-07T17:19:00;8.25;;;7.38;;
15408;SDS011;7803;48.130;13.788;2023-08-07T17:22:04;9.77;;;7.93;;
15408;SDS011;7803;48.130;13.788;2023-08-07T17:25:09;10.25;;;8.05;;
15408;SDS011;7803;48.130;13.788;2023-08-07T17:28:13;9.77;;;7.55;;
15408;SDS011;7803;48.130;13.788;2023-08-07T17:31:17;8.27;;;7.22;;
15408;SDS011;7803;48.130;13.788;2023-08-07T17:34:20;8.90;;;8.00;;
15408;SDS011;7803;48.130;13.788;2023-08-07T17:37:25;9.18;;;7.70;;
15408;SDS011;7803;48.130;13.788;2023-08-07T17:40:31;8.95;;;7.82;;
15408;SDS011;7803;48.130;13.788;2023-08-07T17:43:34;11.20;;;7.82;;
15408;SDS011;7803;48.130;13.788;2023-08-07T17:46:38;8.02;;;6.93;;
15408;SDS011;7803;48.130;13.788;2023-08-07T17:49:42;9.48;;;7.65;;
15408;SDS011;7803;48.130;13.788;2023-08-07T17:52:46;8.93;;;7.30;;
15408;SDS011;7803;48.130;13.788;2023-08-07T17:55:51;9.05;;;7.18;;
15408;SDS011;7803;48.130;13.788;2023-08-07T17:58:55;8.10;;;7.28;;
15408;SDS011;7803;48.130;13.788;2023-08-07T18:01:59;8.90;;;6.88;;
15408;SDS011;7803;48.130;13.788;2023-08-07T18:05:03;8.40;;;7.13;;
15408;SDS011;7803;48.130;13.788;2023-08-07T18:08:08;8.65;;;6.57;;
15408;SDS011;7803;48.130;13.788;2023-08-07T18:11:13;9.50;;;6.65;;
15408;SDS011;7803;48.130;13.788;2023-08-07T18:14:17;9.80;;;6.75;;